sensor_id;sensor_type;location;lat;lon;timestamp;P1;durP1;ratioP1;P2;durP2;ratioP2
20482;SDS011;10400;53.198;6.592;2023-07-13T00:01:30;9.77;;;2.35;;
20482;SDS011;10400;53.198;6.592;2023-07-13T00:03:57;10.85;;;2.13;;
20482;SDS011;10400;53.198;6.592;2023-07-13T00:06:22;14.32;;;2.63;;
20482;SDS011;10400;53.198;6.592;2023-07-13T00:08:48;7.28;;;2.40;;
20482;SDS011;10400;53.198;6.592;2023-07-13T00:11:14;9.15;;;1.90;;
20482;SDS011;10400;53.198;6.592;2023-07-13T00:13:41;10.40;;;2.55;;
20482;SDS011;10400;53.198;6.592;2023-07-13T00:16:08;11.70;;;2.40;;
20482;SDS011;10400;53.198;6.592;2023-07-13T00:18:34;11.35;;;2.63;;
20482;SDS011;10400;53.198;6.592;2023-07-13T00:21:00;13.80;;;3.10;;
20482;SDS011;10400;53.198;6.592;2023-07-13T00:23:33;10.98;;;2.40;;
20482;SDS011;10400;53.198;6.592;2023-07-13T00:26:01;10.43;;;2.25;;
20482;SDS011;10400;53.198;6.592;2023-07-13T00:28:27;9.80;;;2.50;;
20482;SDS011;10400;53.198;6.592;2023-07-13T00:30:53;16.73;;;2.67;;
20482;SDS011;10400;53.198;6.592;2023-07-13T00:33:19;9.60;;;2.35;;
20482;SDS011;10400;53.198;6.592;2023-07-13T00:35:45;11.88;;;2.28;;
20482;SDS011;10400;53.198;6.592;2023-07-13T00:38:11;10.02;;;2.40;;
20482;SDS011;10400;53.198;6.592;2023-07-13T00:40:36;10.10;;;2.55;;
20482;SDS011;10400;53.198;6.592;2023-07-13T00:43:02;10.10;;;2.42;;
20482;SDS011;10400;53.198;6.592;2023-07-13T00:47:55;8.60;;;2.90;;
20482;SDS011;10400;53.198;6.592;2023-07-13T00:50:22;9.15;;;2.60;;
20482;SDS011;10400;53.198;6.592;2023-07-13T00:52:50;12.07;;;2.83;;
20482;SDS011;10400;53.198;6.592;2023-07-13T00:55:19;9.20;;;2.60;;
20482;SDS011;10400;53.198;6.592;2023-07-13T00:57:47;14.38;;;3.20;;
20482;SDS011;10400;53.198;6.592;2023-07-13T01:00:13;8.75;;;2.65;;
20482;SDS011;10400;53.198;6.592;2023-07-13T01:02:40;14.95;;;2.63;;
20482;SDS011;10400;53.198;6.592;2023-07-13T01:05:12;10.52;;;2.63;;
20482;SDS011;10400;53.198;6.592;2023-07-13T01:07:41;10.88;;;2.60;;
20482;SDS011;10400;53.198;6.592;2023-07-13T01:10:08;12.85;;;2.72;;
20482;SDS011;10400;53.198;6.592;2023-07-13T01:12:35;8.85;;;2.10;;
20482;SDS011;10400;53.198;6.592;2023-07-13T01:15:02;10.13;;;2.45;;
20482;SDS011;10400;53.198;6.592;2023-07-13T01:17:29;9.82;;;2.67;;
20482;SDS011;10400;53.198;6.592;2023-07-13T01:19:58;13.27;;;2.60;;
20482;SDS011;10400;53.198;6.592;2023-07-13T01:22:24;11.45;;;2.80;;
20482;SDS011;10400;53.198;6.592;2023-07-13T01:24:51;12.73;;;3.40;;
20482;SDS011;10400;53.198;6.592;2023-07-13T01:27:20;11.15;;;2.63;;
20482;SDS011;10400;53.198;6.592;2023-07-13T01:29:51;11.88;;;2.95;;
20482;SDS011;10400;53.198;6.592;2023-07-13T01:32:19;13.50;;;2.83;;
20482;SDS011;10400;53.198;6.592;2023-07-13T01:34:49;13.40;;;2.63;;
20482;SDS011;10400;53.198;6.592;2023-07-13T01:37:15;10.13;;;2.63;;
20482;SDS011;10400;53.198;6.592;2023-07-13T01:39:42;14.65;;;2.92;;
20482;SDS011;10400;53.198;6.592;2023-07-13T01:42:08;13.52;;;3.17;;
20482;SDS011;10400;53.198;6.592;2023-07-13T01:44:33;9.85;;;3.20;;
20482;SDS011;10400;53.198;6.592;2023-07-13T01:47:00;11.32;;;2.70;;
20482;SDS011;10400;53.198;6.592;2023-07-13T01:49:26;14.38;;;3.25;;
20482;SDS011;10400;53.198;6.592;2023-07-13T01:51:52;12.43;;;3.05;;
20482;SDS011;10400;53.198;6.592;2023-07-13T01:54:17;14.82;;;3.20;;
20482;SDS011;10400;53.198;6.592;2023-07-13T01:56:43;12.20;;;2.47;;
20482;SDS011;10400;53.198;6.592;2023-07-13T01:59:09;22.27;;;3.47;;
20482;SDS011;10400;53.198;6.592;2023-07-13T02:01:35;12.40;;;2.95;;
20482;SDS011;10400;53.198;6.592;2023-07-13T02:04:00;19.70;;;3.15;;
20482;SDS011;10400;53.198;6.592;2023-07-13T02:06:26;10.45;;;3.20;;
20482;SDS011;10400;53.198;6.592;2023-07-13T02:08:52;16.13;;;3.17;;
20482;SDS011;10400;53.198;6.592;2023-07-13T02:11:18;12.88;;;3.90;;
20482;SDS011;10400;53.198;6.592;2023-07-13T02:13:43;14.90;;;3.20;;
20482;SDS011;10400;53.198;6.592;2023-07-13T02:16:09;15.00;;;3.30;;
20482;SDS011;10400;53.198;6.592;2023-07-13T02:18:35;6.05;;;2.63;;
20482;SDS011;10400;53.198;6.592;2023-07-13T02:21:00;10.10;;;2.67;;
20482;SDS011;10400;53.198;6.592;2023-07-13T02:23:27;14.57;;;3.00;;
20482;SDS011;10400;53.198;6.592;2023-07-13T02:25:56;9.30;;;3.42;;
20482;SDS011;10400;53.198;6.592;2023-07-13T02:28:23;13.75;;;2.92;;
20482;SDS011;10400;53.198;6.592;2023-07-13T02:30:49;11.85;;;2.95;;
20482;SDS011;10400;53.198;6.592;2023-07-13T02:33:14;13.32;;;2.95;;
20482;SDS011;10400;53.198;6.592;2023-07-13T02:35:40;11.50;;;3.13;;
20482;SDS011;10400;53.198;6.592;2023-07-13T02:38:06;11.27;;;3.47;;
20482;SDS011;10400;53.198;6.592;2023-07-13T02:40:31;12.95;;;2.95;;
20482;SDS011;10400;53.198;6.592;2023-07-13T02:43:01;14.77;;;3.20;;
20482;SDS011;10400;53.198;6.592;2023-07-13T02:45:28;9.63;;;3.13;;
20482;SDS011;10400;53.198;6.592;2023-07-13T02:47:54;11.10;;;3.25;;
20482;SDS011;10400;53.198;6.592;2023-07-13T02:50:19;11.77;;;2.97;;
20482;SDS011;10400;53.198;6.592;2023-07-13T02:52:45;13.82;;;3.58;;
20482;SDS011;10400;53.198;6.592;2023-07-13T02:55:11;12.63;;;3.40;;
20482;SDS011;10400;53.198;6.592;2023-07-13T02:57:36;14.15;;;4.05;;
20482;SDS011;10400;53.198;6.592;2023-07-13T03:00:03;17.45;;;3.30;;
20482;SDS011;10400;53.198;6.592;2023-07-13T03:02:32;16.92;;;3.38;;
20482;SDS011;10400;53.198;6.592;2023-07-13T03:04:59;15.38;;;4.03;;
20482;SDS011;10400;53.198;6.592;2023-07-13T03:07:24;13.13;;;4.07;;
20482;SDS011;10400;53.198;6.592;2023-07-13T03:09:54;14.73;;;4.32;;
20482;SDS011;10400;53.198;6.592;2023-07-13T03:12:21;17.13;;;3.78;;
20482;SDS011;10400;53.198;6.592;2023-07-13T03:14:47;16.08;;;4.05;;
20482;SDS011;10400;53.198;6.592;2023-07-13T03:17:12;16.42;;;3.72;;
20482;SDS011;10400;53.198;6.592;2023-07-13T03:19:38;17.73;;;4.15;;
20482;SDS011;10400;53.198;6.592;2023-07-13T03:22:03;15.45;;;3.63;;
20482;SDS011;10400;53.198;6.592;2023-07-13T03:24:29;13.00;;;3.95;;
20482;SDS011;10400;53.198;6.592;2023-07-13T03:26:57;14.18;;;3.75;;
20482;SDS011;10400;53.198;6.592;2023-07-13T03:29:22;14.35;;;3.88;;
20482;SDS011;10400;53.198;6.592;2023-07-13T03:31:48;13.48;;;3.78;;
20482;SDS011;10400;53.198;6.592;2023-07-13T03:34:14;13.95;;;3.20;;
20482;SDS011;10400;53.198;6.592;2023-07-13T03:36:39;12.38;;;3.60;;
20482;SDS011;10400;53.198;6.592;2023-07-13T03:39:05;12.55;;;3.50;;
20482;SDS011;10400;53.198;6.592;2023-07-13T03:41:33;15.90;;;3.72;;
20482;SDS011;10400;53.198;6.592;2023-07-13T03:43:59;13.55;;;3.53;;
20482;SDS011;10400;53.198;6.592;2023-07-13T03:46:25;19.63;;;4.35;;
20482;SDS011;10400;53.198;6.592;2023-07-13T03:48:51;13.45;;;3.58;;
20482;SDS011;10400;53.198;6.592;2023-07-13T03:51:17;16.42;;;3.50;;
20482;SDS011;10400;53.198;6.592;2023-07-13T03:53:43;9.38;;;3.03;;
20482;SDS011;10400;53.198;6.592;2023-07-13T03:56:10;22.13;;;4.07;;
20482;SDS011;10400;53.198;6.592;2023-07-13T03:58:37;13.27;;;3.40;;
20482;SDS011;10400;53.198;6.592;2023-07-13T04:01:05;14.13;;;3.17;;
20482;SDS011;10400;53.198;6.592;2023-07-13T04:03:32;12.70;;;3.70;;
20482;SDS011;10400;53.198;6.592;2023-07-13T04:05:59;11.40;;;3.40;;
20482;SDS011;10400;53.198;6.592;2023-07-13T04:08:28;13.20;;;3.22;;
20482;SDS011;10400;53.198;6.592;2023-07-13T04:10:56;16.55;;;3.90;;
20482;SDS011;10400;53.198;6.592;2023-07-13T04:13:22;15.07;;;3.97;;
20482;SDS011;10400;53.198;6.592;2023-07-13T04:15:48;11.75;;;3.58;;
20482;SDS011;10400;53.198;6.592;2023-07-13T04:18:13;12.35;;;3.97;;
20482;SDS011;10400;53.198;6.592;2023-07-13T04:20:39;20.42;;;4.18;;
20482;SDS011;10400;53.198;6.592;2023-07-13T04:23:05;15.52;;;3.88;;
20482;SDS011;10400;53.198;6.592;2023-07-13T04:25:31;16.40;;;3.65;;
20482;SDS011;10400;53.198;6.592;2023-07-13T04:27:56;15.27;;;3.92;;
20482;SDS011;10400;53.198;6.592;2023-07-13T04:30:22;18.95;;;3.90;;
20482;SDS011;10400;53.198;6.592;2023-07-13T04:32:50;21.52;;;3.78;;
20482;SDS011;10400;53.198;6.592;2023-07-13T04:35:17;17.65;;;4.68;;
20482;SDS011;10400;53.198;6.592;2023-07-13T04:37:45;16.58;;;3.70;;
20482;SDS011;10400;53.198;6.592;2023-07-13T04:40:12;13.77;;;4.03;;
20482;SDS011;10400;53.198;6.592;2023-07-13T04:42:38;14.95;;;4.22;;
20482;SDS011;10400;53.198;6.592;2023-07-13T04:45:05;17.42;;;3.67;;
20482;SDS011;10400;53.198;6.592;2023-07-13T04:47:32;21.65;;;4.65;;
20482;SDS011;10400;53.198;6.592;2023-07-13T04:49:57;18.48;;;4.38;;
20482;SDS011;10400;53.198;6.592;2023-07-13T04:52:23;21.27;;;5.05;;
20482;SDS011;10400;53.198;6.592;2023-07-13T04:54:49;13.43;;;3.50;;
20482;SDS011;10400;53.198;6.592;2023-07-13T04:57:15;16.40;;;4.25;;
20482;SDS011;10400;53.198;6.592;2023-07-13T04:59:40;11.70;;;4.25;;
20482;SDS011;10400;53.198;6.592;2023-07-13T05:02:06;17.33;;;3.90;;
20482;SDS011;10400;53.198;6.592;2023-07-13T05:04:32;13.18;;;4.05;;
20482;SDS011;10400;53.198;6.592;2023-07-13T05:06:58;13.82;;;3.83;;
20482;SDS011;10400;53.198;6.592;2023-07-13T05:09:25;17.17;;;4.38;;
20482;SDS011;10400;53.198;6.592;2023-07-13T05:11:50;16.23;;;3.72;;
20482;SDS011;10400;53.198;6.592;2023-07-13T05:14:16;14.88;;;3.85;;
20482;SDS011;10400;53.198;6.592;2023-07-13T05:16:42;12.40;;;3.80;;
20482;SDS011;10400;53.198;6.592;2023-07-13T05:19:08;12.63;;;3.90;;
20482;SDS011;10400;53.198;6.592;2023-07-13T05:21:34;14.38;;;3.40;;
20482;SDS011;10400;53.198;6.592;2023-07-13T05:23:59;11.70;;;3.28;;
20482;SDS011;10400;53.198;6.592;2023-07-13T05:26:25;11.35;;;3.05;;
20482;SDS011;10400;53.198;6.592;2023-07-13T05:28:51;16.92;;;3.80;;
20482;SDS011;10400;53.198;6.592;2023-07-13T05:31:16;14.05;;;4.07;;
20482;SDS011;10400;53.198;6.592;2023-07-13T05:33:42;13.55;;;3.33;;
20482;SDS011;10400;53.198;6.592;2023-07-13T05:36:08;10.88;;;3.28;;
20482;SDS011;10400;53.198;6.592;2023-07-13T05:38:33;14.25;;;3.22;;
20482;SDS011;10400;53.198;6.592;2023-07-13T05:40:59;13.75;;;3.78;;
20482;SDS011;10400;53.198;6.592;2023-07-13T05:43:25;10.45;;;3.35;;
20482;SDS011;10400;53.198;6.592;2023-07-13T05:45:52;16.15;;;3.20;;
20482;SDS011;10400;53.198;6.592;2023-07-13T05:48:19;11.85;;;2.83;;
20482;SDS011;10400;53.198;6.592;2023-07-13T05:50:45;13.40;;;3.28;;
20482;SDS011;10400;53.198;6.592;2023-07-13T05:53:11;17.50;;;3.30;;
20482;SDS011;10400;53.198;6.592;2023-07-13T05:55:41;10.10;;;2.75;;
20482;SDS011;10400;53.198;6.592;2023-07-13T05:58:08;9.98;;;2.53;;
20482;SDS011;10400;53.198;6.592;2023-07-13T06:00:34;13.90;;;3.05;;
20482;SDS011;10400;53.198;6.592;2023-07-13T06:03:00;14.52;;;3.42;;
20482;SDS011;10400;53.198;6.592;2023-07-13T06:05:25;11.90;;;2.80;;
20482;SDS011;10400;53.198;6.592;2023-07-13T06:07:53;7.82;;;2.72;;
20482;SDS011;10400;53.198;6.592;2023-07-13T06:10:19;9.48;;;2.80;;
20482;SDS011;10400;53.198;6.592;2023-07-13T06:12:44;9.65;;;3.03;;
20482;SDS011;10400;53.198;6.592;2023-07-13T06:15:10;11.70;;;3.10;;
20482;SDS011;10400;53.198;6.592;2023-07-13T06:17:36;9.60;;;2.70;;
20482;SDS011;10400;53.198;6.592;2023-07-13T06:20:02;7.25;;;2.22;;
20482;SDS011;10400;53.198;6.592;2023-07-13T06:22:28;15.68;;;3.10;;
20482;SDS011;10400;53.198;6.592;2023-07-13T06:24:54;12.27;;;2.33;;
20482;SDS011;10400;53.198;6.592;2023-07-13T06:27:20;14.55;;;2.33;;
20482;SDS011;10400;53.198;6.592;2023-07-13T06:29:45;9.50;;;2.70;;
20482;SDS011;10400;53.198;6.592;2023-07-13T06:32:11;11.85;;;3.10;;
20482;SDS011;10400;53.198;6.592;2023-07-13T06:34:37;6.82;;;2.15;;
20482;SDS011;10400;53.198;6.592;2023-07-13T06:37:02;11.77;;;2.58;;
20482;SDS011;10400;53.198;6.592;2023-07-13T06:39:28;11.20;;;2.35;;
20482;SDS011;10400;53.198;6.592;2023-07-13T06:41:54;7.25;;;2.70;;
20482;SDS011;10400;53.198;6.592;2023-07-13T06:44:19;9.10;;;2.25;;
20482;SDS011;10400;53.198;6.592;2023-07-13T06:46:45;8.02;;;2.33;;
20482;SDS011;10400;53.198;6.592;2023-07-13T06:49:10;12.80;;;1.92;;
20482;SDS011;10400;53.198;6.592;2023-07-13T06:51:36;6.95;;;2.20;;
20482;SDS011;10400;53.198;6.592;2023-07-13T06:54:02;8.52;;;2.30;;
20482;SDS011;10400;53.198;6.592;2023-07-13T06:56:28;10.50;;;2.38;;
20482;SDS011;10400;53.198;6.592;2023-07-13T06:58:54;13.27;;;2.20;;
20482;SDS011;10400;53.198;6.592;2023-07-13T07:01:19;6.82;;;2.25;;
20482;SDS011;10400;53.198;6.592;2023-07-13T07:03:45;10.05;;;2.13;;
20482;SDS011;10400;53.198;6.592;2023-07-13T07:06:13;7.65;;;1.98;;
20482;SDS011;10400;53.198;6.592;2023-07-13T07:08:41;11.68;;;1.90;;
20482;SDS011;10400;53.198;6.592;2023-07-13T07:11:16;11.75;;;2.45;;
20482;SDS011;10400;53.198;6.592;2023-07-13T07:13:43;8.93;;;1.83;;
20482;SDS011;10400;53.198;6.592;2023-07-13T07:16:08;7.15;;;1.70;;
20482;SDS011;10400;53.198;6.592;2023-07-13T07:18:34;11.50;;;2.55;;
20482;SDS011;10400;53.198;6.592;2023-07-13T07:21:00;5.68;;;1.67;;
20482;SDS011;10400;53.198;6.592;2023-07-13T07:23:26;3.63;;;1.27;;
20482;SDS011;10400;53.198;6.592;2023-07-13T07:25:51;2.63;;;1.48;;
20482;SDS011;10400;53.198;6.592;2023-07-13T07:28:17;10.73;;;2.20;;
20482;SDS011;10400;53.198;6.592;2023-07-13T07:30:47;8.27;;;1.67;;
20482;SDS011;10400;53.198;6.592;2023-07-13T07:33:13;5.00;;;1.67;;
20482;SDS011;10400;53.198;6.592;2023-07-13T07:35:39;7.40;;;2.00;;
20482;SDS011;10400;53.198;6.592;2023-07-13T07:38:05;5.78;;;1.70;;
20482;SDS011;10400;53.198;6.592;2023-07-13T07:40:31;10.90;;;2.17;;
20482;SDS011;10400;53.198;6.592;2023-07-13T07:42:57;12.98;;;2.40;;
20482;SDS011;10400;53.198;6.592;2023-07-13T07:45:23;9.63;;;2.00;;
20482;SDS011;10400;53.198;6.592;2023-07-13T07:47:48;10.30;;;1.98;;
20482;SDS011;10400;53.198;6.592;2023-07-13T07:50:14;8.02;;;2.30;;
20482;SDS011;10400;53.198;6.592;2023-07-13T07:52:40;9.65;;;2.35;;
20482;SDS011;10400;53.198;6.592;2023-07-13T07:55:06;9.65;;;3.10;;
20482;SDS011;10400;53.198;6.592;2023-07-13T07:57:33;8.13;;;2.00;;
20482;SDS011;10400;53.198;6.592;2023-07-13T07:59:59;11.98;;;2.53;;
20482;SDS011;10400;53.198;6.592;2023-07-13T08:02:25;10.07;;;2.35;;
20482;SDS011;10400;53.198;6.592;2023-07-13T08:04:51;4.63;;;1.88;;
20482;SDS011;10400;53.198;6.592;2023-07-13T08:07:17;4.10;;;1.60;;
20482;SDS011;10400;53.198;6.592;2023-07-13T08:09:43;5.70;;;1.75;;
20482;SDS011;10400;53.198;6.592;2023-07-13T08:12:09;3.60;;;1.42;;
20482;SDS011;10400;53.198;6.592;2023-07-13T08:14:35;2.85;;;1.50;;
20482;SDS011;10400;53.198;6.592;2023-07-13T08:17:00;4.28;;;1.48;;
20482;SDS011;10400;53.198;6.592;2023-07-13T08:19:26;4.05;;;1.60;;
20482;SDS011;10400;53.198;6.592;2023-07-13T08:21:52;4.25;;;1.17;;
20482;SDS011;10400;53.198;6.592;2023-07-13T08:24:18;4.43;;;1.70;;
20482;SDS011;10400;53.198;6.592;2023-07-13T08:26:46;4.32;;;1.60;;
20482;SDS011;10400;53.198;6.592;2023-07-13T08:29:12;3.35;;;1.40;;
20482;SDS011;10400;53.198;6.592;2023-07-13T08:31:37;3.92;;;1.40;;
20482;SDS011;10400;53.198;6.592;2023-07-13T08:34:03;5.05;;;1.88;;
20482;SDS011;10400;53.198;6.592;2023-07-13T08:36:29;9.95;;;2.00;;
20482;SDS011;10400;53.198;6.592;2023-07-13T08:38:55;4.60;;;1.45;;
20482;SDS011;10400;53.198;6.592;2023-07-13T08:41:21;5.43;;;1.67;;
20482;SDS011;10400;53.198;6.592;2023-07-13T08:43:56;4.90;;;1.55;;
20482;SDS011;10400;53.198;6.592;2023-07-13T08:46:24;5.13;;;1.65;;
20482;SDS011;10400;53.198;6.592;2023-07-13T08:48:55;6.25;;;1.70;;
20482;SDS011;10400;53.198;6.592;2023-07-13T08:53:59;9.38;;;1.42;;
20482;SDS011;10400;53.198;6.592;2023-07-13T08:56:28;3.22;;;1.05;;
20482;SDS011;10400;53.198;6.592;2023-07-13T08:58:58;6.07;;;1.50;;
20482;SDS011;10400;53.198;6.592;2023-07-13T09:01:38;9.50;;;1.98;;
20482;SDS011;10400;53.198;6.592;2023-07-13T09:04:22;7.13;;;1.48;;
20482;SDS011;10400;53.198;6.592;2023-07-13T09:14:54;4.97;;;1.40;;
20482;SDS011;10400;53.198;6.592;2023-07-13T09:17:46;6.05;;;1.63;;
20482;SDS011;10400;53.198;6.592;2023-07-13T09:23:01;5.25;;;1.65;;
20482;SDS011;10400;53.198;6.592;2023-07-13T09:25:31;4.72;;;1.65;;
20482;SDS011;10400;53.198;6.592;2023-07-13T09:33:31;4.63;;;1.92;;
20482;SDS011;10400;53.198;6.592;2023-07-13T09:35:59;8.60;;;1.63;;
20482;SDS011;10400;53.198;6.592;2023-07-13T09:38:28;7.13;;;1.73;;
20482;SDS011;10400;53.198;6.592;2023-07-13T09:41:08;5.15;;;1.85;;
20482;SDS011;10400;53.198;6.592;2023-07-13T09:44:00;5.60;;;1.38;;
20482;SDS011;10400;53.198;6.592;2023-07-13T09:46:36;8.20;;;1.90;;
20482;SDS011;10400;53.198;6.592;2023-07-13T09:49:03;4.05;;;1.52;;
20482;SDS011;10400;53.198;6.592;2023-07-13T09:51:29;5.53;;;1.70;;
20482;SDS011;10400;53.198;6.592;2023-07-13T09:53:55;4.68;;;1.58;;
20482;SDS011;10400;53.198;6.592;2023-07-13T09:58:47;8.55;;;1.77;;
20482;SDS011;10400;53.198;6.592;2023-07-13T10:01:13;6.13;;;1.50;;
20482;SDS011;10400;53.198;6.592;2023-07-13T10:03:39;9.13;;;2.08;;
20482;SDS011;10400;53.198;6.592;2023-07-13T10:06:16;7.70;;;2.10;;
20482;SDS011;10400;53.198;6.592;2023-07-13T10:08:44;9.38;;;2.63;;
20482;SDS011;10400;53.198;6.592;2023-07-13T10:11:14;5.18;;;2.40;;
20482;SDS011;10400;53.198;6.592;2023-07-13T10:13:52;8.98;;;2.25;;
20482;SDS011;10400;53.198;6.592;2023-07-13T10:16:21;6.30;;;2.00;;
20482;SDS011;10400;53.198;6.592;2023-07-13T10:18:49;8.45;;;2.42;;
20482;SDS011;10400;53.198;6.592;2023-07-13T10:21:19;8.50;;;1.95;;
20482;SDS011;10400;53.198;6.592;2023-07-13T10:23:57;5.57;;;2.00;;
20482;SDS011;10400;53.198;6.592;2023-07-13T10:26:46;4.05;;;1.30;;
20482;SDS011;10400;53.198;6.592;2023-07-13T10:29:20;4.70;;;1.60;;
20482;SDS011;10400;53.198;6.592;2023-07-13T10:31:48;6.95;;;2.25;;
20482;SDS011;10400;53.198;6.592;2023-07-13T10:34:15;4.72;;;1.77;;
20482;SDS011;10400;53.198;6.592;2023-07-13T10:36:42;5.50;;;2.17;;
20482;SDS011;10400;53.198;6.592;2023-07-13T10:39:13;7.50;;;2.33;;
20482;SDS011;10400;53.198;6.592;2023-07-13T10:41:44;6.90;;;2.25;;
20482;SDS011;10400;53.198;6.592;2023-07-13T10:44:22;5.15;;;2.10;;
20482;SDS011;10400;53.198;6.592;2023-07-13T10:46:57;7.18;;;2.08;;
20482;SDS011;10400;53.198;6.592;2023-07-13T10:49:26;2.92;;;1.05;;
20482;SDS011;10400;53.198;6.592;2023-07-13T10:51:54;2.13;;;1.08;;
20482;SDS011;10400;53.198;6.592;2023-07-13T10:54:21;1.40;;;0.93;;
20482;SDS011;10400;53.198;6.592;2023-07-13T10:57:07;7.75;;;1.08;;
20482;SDS011;10400;53.198;6.592;2023-07-13T10:59:47;4.45;;;0.98;;
20482;SDS011;10400;53.198;6.592;2023-07-13T11:02:33;2.88;;;1.17;;
20482;SDS011;10400;53.198;6.592;2023-07-13T11:05:01;3.97;;;1.20;;
20482;SDS011;10400;53.198;6.592;2023-07-13T11:08:03;3.33;;;1.20;;
20482;SDS011;10400;53.198;6.592;2023-07-13T11:10:51;2.55;;;1.30;;
20482;SDS011;10400;53.198;6.592;2023-07-13T11:30:24;2.85;;;1.00;;
20482;SDS011;10400;53.198;6.592;2023-07-13T11:33:04;2.50;;;0.90;;
20482;SDS011;10400;53.198;6.592;2023-07-13T11:35:50;4.68;;;1.00;;
20482;SDS011;10400;53.198;6.592;2023-07-13T11:41:00;7.35;;;1.20;;
20482;SDS011;10400;53.198;6.592;2023-07-13T11:43:32;4.82;;;1.40;;
20482;SDS011;10400;53.198;6.592;2023-07-13T11:46:11;4.90;;;1.27;;
20482;SDS011;10400;53.198;6.592;2023-07-13T11:48:38;3.85;;;1.02;;
20482;SDS011;10400;53.198;6.592;2023-07-13T11:51:05;4.18;;;1.15;;
20482;SDS011;10400;53.198;6.592;2023-07-13T11:53:50;5.43;;;1.33;;
20482;SDS011;10400;53.198;6.592;2023-07-13T11:56:17;2.30;;;0.77;;
20482;SDS011;10400;53.198;6.592;2023-07-13T11:58:43;4.40;;;1.05;;
20482;SDS011;10400;53.198;6.592;2023-07-13T12:03:43;3.70;;;1.30;;
20482;SDS011;10400;53.198;6.592;2023-07-13T12:09:13;2.58;;;1.08;;
20482;SDS011;10400;53.198;6.592;2023-07-13T12:11:43;5.20;;;1.40;;
20482;SDS011;10400;53.198;6.592;2023-07-13T12:14:13;4.72;;;1.00;;
20482;SDS011;10400;53.198;6.592;2023-07-13T12:16:43;15.35;;;3.42;;
20482;SDS011;10400;53.198;6.592;2023-07-13T12:19:23;3.70;;;0.98;;
20482;SDS011;10400;53.198;6.592;2023-07-13T12:21:54;7.78;;;1.40;;
20482;SDS011;10400;53.198;6.592;2023-07-13T12:24:22;8.80;;;1.52;;
20482;SDS011;10400;53.198;6.592;2023-07-13T12:29:26;8.60;;;1.30;;
20482;SDS011;10400;53.198;6.592;2023-07-13T12:31:51;8.30;;;1.67;;
20482;SDS011;10400;53.198;6.592;2023-07-13T12:34:20;5.10;;;1.23;;
20482;SDS011;10400;53.198;6.592;2023-07-13T12:36:51;9.20;;;1.65;;
20482;SDS011;10400;53.198;6.592;2023-07-13T12:39:20;4.10;;;1.20;;
20482;SDS011;10400;53.198;6.592;2023-07-13T12:41:52;3.33;;;1.20;;
20482;SDS011;10400;53.198;6.592;2023-07-13T12:44:21;7.93;;;1.63;;
20482;SDS011;10400;53.198;6.592;2023-07-13T12:46:57;4.72;;;1.73;;
20482;SDS011;10400;53.198;6.592;2023-07-13T12:49:29;4.72;;;1.40;;
20482;SDS011;10400;53.198;6.592;2023-07-13T12:51:57;5.53;;;1.27;;
20482;SDS011;10400;53.198;6.592;2023-07-13T12:54:26;6.57;;;1.48;;
20482;SDS011;10400;53.198;6.592;2023-07-13T12:56:52;4.90;;;1.70;;
20482;SDS011;10400;53.198;6.592;2023-07-13T12:59:20;3.45;;;1.02;;
20482;SDS011;10400;53.198;6.592;2023-07-13T13:01:47;4.47;;;1.50;;
20482;SDS011;10400;53.198;6.592;2023-07-13T13:04:14;2.05;;;1.05;;
20482;SDS011;10400;53.198;6.592;2023-07-13T13:06:41;5.68;;;1.20;;
20482;SDS011;10400;53.198;6.592;2023-07-13T13:09:11;9.68;;;1.85;;
20482;SDS011;10400;53.198;6.592;2023-07-13T13:11:38;6.38;;;1.60;;
20482;SDS011;10400;53.198;6.592;2023-07-13T13:14:05;8.57;;;1.60;;
20482;SDS011;10400;53.198;6.592;2023-07-13T13:16:37;3.22;;;1.40;;
20482;SDS011;10400;53.198;6.592;2023-07-13T13:21:42;4.63;;;1.50;;
20482;SDS011;10400;53.198;6.592;2023-07-13T13:24:16;11.02;;;1.98;;
20482;SDS011;10400;53.198;6.592;2023-07-13T13:26:43;27.95;;;2.88;;
20482;SDS011;10400;53.198;6.592;2023-07-13T13:29:13;7.95;;;1.60;;
20482;SDS011;10400;53.198;6.592;2023-07-13T13:31:41;9.65;;;2.33;;
20482;SDS011;10400;53.198;6.592;2023-07-13T13:34:11;5.72;;;1.40;;
20482;SDS011;10400;53.198;6.592;2023-07-13T13:36:38;5.60;;;1.20;;
20482;SDS011;10400;53.198;6.592;2023-07-13T13:42:01;6.60;;;1.58;;
20482;SDS011;10400;53.198;6.592;2023-07-13T13:44:27;6.32;;;1.42;;
20482;SDS011;10400;53.198;6.592;2023-07-13T13:46:54;6.53;;;1.63;;
20482;SDS011;10400;53.198;6.592;2023-07-13T13:49:22;4.05;;;1.30;;
20482;SDS011;10400;53.198;6.592;2023-07-13T13:51:50;3.55;;;1.20;;
20482;SDS011;10400;53.198;6.592;2023-07-13T13:54:17;5.07;;;1.50;;
20482;SDS011;10400;53.198;6.592;2023-07-13T13:56:45;6.60;;;1.50;;
20482;SDS011;10400;53.198;6.592;2023-07-13T13:59:12;3.72;;;1.40;;
20482;SDS011;10400;53.198;6.592;2023-07-13T14:01:39;6.97;;;2.10;;
20482;SDS011;10400;53.198;6.592;2023-07-13T14:04:08;3.83;;;1.73;;
20482;SDS011;10400;53.198;6.592;2023-07-13T14:06:46;7.18;;;1.80;;
20482;SDS011;10400;53.198;6.592;2023-07-13T14:09:13;4.90;;;1.75;;
20482;SDS011;10400;53.198;6.592;2023-07-13T14:11:41;4.72;;;1.42;;
20482;SDS011;10400;53.198;6.592;2023-07-13T14:14:09;6.60;;;1.67;;
20482;SDS011;10400;53.198;6.592;2023-07-13T14:16:40;5.78;;;1.58;;
20482;SDS011;10400;53.198;6.592;2023-07-13T14:19:08;7.05;;;1.52;;
20482;SDS011;10400;53.198;6.592;2023-07-13T14:21:36;15.13;;;2.17;;
20482;SDS011;10400;53.198;6.592;2023-07-13T14:24:02;3.60;;;1.38;;
20482;SDS011;10400;53.198;6.592;2023-07-13T14:26:36;3.88;;;1.50;;
20482;SDS011;10400;53.198;6.592;2023-07-13T14:29:04;5.28;;;1.40;;
20482;SDS011;10400;53.198;6.592;2023-07-13T14:31:38;4.45;;;2.03;;
20482;SDS011;10400;53.198;6.592;2023-07-13T14:34:04;5.22;;;1.58;;
20482;SDS011;10400;53.198;6.592;2023-07-13T14:36:31;8.10;;;1.88;;
20482;SDS011;10400;53.198;6.592;2023-07-13T14:38:59;4.10;;;1.30;;
20482;SDS011;10400;53.198;6.592;2023-07-13T14:41:31;7.40;;;1.60;;
20482;SDS011;10400;53.198;6.592;2023-07-13T14:43:57;6.28;;;1.67;;
20482;SDS011;10400;53.198;6.592;2023-07-13T14:46:30;6.20;;;1.48;;
20482;SDS011;10400;53.198;6.592;2023-07-13T14:49:03;4.50;;;1.58;;
20482;SDS011;10400;53.198;6.592;2023-07-13T14:51:32;13.10;;;1.60;;
20482;SDS011;10400;53.198;6.592;2023-07-13T14:54:02;6.20;;;1.67;;
20482;SDS011;10400;53.198;6.592;2023-07-13T14:56:30;3.67;;;1.30;;
20482;SDS011;10400;53.198;6.592;2023-07-13T14:58:55;5.00;;;1.50;;
20482;SDS011;10400;53.198;6.592;2023-07-13T15:01:21;7.60;;;1.70;;
20482;SDS011;10400;53.198;6.592;2023-07-13T15:03:50;6.32;;;1.70;;
20482;SDS011;10400;53.198;6.592;2023-07-13T15:06:17;6.93;;;1.80;;
20482;SDS011;10400;53.198;6.592;2023-07-13T15:08:44;4.65;;;1.70;;
20482;SDS011;10400;53.198;6.592;2023-07-13T15:11:10;5.90;;;1.67;;
20482;SDS011;10400;53.198;6.592;2023-07-13T15:13:39;8.70;;;1.98;;
20482;SDS011;10400;53.198;6.592;2023-07-13T15:16:40;8.93;;;2.17;;
20482;SDS011;10400;53.198;6.592;2023-07-13T15:18:59;5.75;;;1.50;;
20482;SDS011;10400;53.198;6.592;2023-07-13T15:21:25;7.78;;;1.50;;
20482;SDS011;10400;53.198;6.592;2023-07-13T15:23:53;4.90;;;1.67;;
20482;SDS011;10400;53.198;6.592;2023-07-13T15:26:19;6.13;;;1.80;;
20482;SDS011;10400;53.198;6.592;2023-07-13T15:28:45;8.48;;;2.08;;
20482;SDS011;10400;53.198;6.592;2023-07-13T15:31:22;8.13;;;2.05;;
20482;SDS011;10400;53.198;6.592;2023-07-13T15:33:50;7.25;;;1.65;;
20482;SDS011;10400;53.198;6.592;2023-07-13T15:36:21;6.50;;;1.80;;
20482;SDS011;10400;53.198;6.592;2023-07-13T15:38:47;10.00;;;1.90;;
20482;SDS011;10400;53.198;6.592;2023-07-13T15:41:23;5.63;;;1.83;;
20482;SDS011;10400;53.198;6.592;2023-07-13T15:43:52;9.75;;;1.65;;